This is the latest recevied weather packets stored in our database for station/object DK1ZX-10. If no packets are shown the sender has not sent any weather packets the latest 10 day(s).
| Time | Temp. | Humidity | Pressure | Rain* | Wind** | Luminosity | Snow |
|---|---|---|---|---|---|---|---|
| 1777640957 | 19.44° C | 25% | 1026.7 hPa | - | - | - | - |
| 1777639757 | 19.44° C | 24% | 1027 hPa | - | - | - | - |
| 1777638557 | 18.89° C | 25% | 1027.2 hPa | - | - | - | - |
| 1777637357 | 18.89° C | 25% | 1027.5 hPa | - | - | - | - |
| 1777636157 | 18.89° C | 25% | 1027.5 hPa | - | - | - | - |
| 1777634956 | 18.89° C | 25% | 1027.7 hPa | - | - | - | - |
| 1777633756 | 21.11° C | 22% | 1028 hPa | - | - | - | - |
| 1777632556 | 20.56° C | 23% | 1028.2 hPa | - | - | - | - |
| 1777631356 | 22.22° C | 20% | 1028.2 hPa | - | - | - | - |
| 1777630156 | 23.33° C | 19% | 1028.3 hPa | - | - | - | - |
| 1777628956 | 25° C | 17% | 1028.5 hPa | - | - | - | - |
| 1777627756 | 29.44° C | 13% | 1028.5 hPa | - | - | - | - |
| 1777626556 | 31.67° C | 11% | 1028.6 hPa | - | - | - | - |
| 1777625356 | 33.33° C | 10% | 1028.6 hPa | - | - | - | - |
| 1777624156 | 36.11° C | 9% | 1028.7 hPa | - | - | - | - |
| 1777622956 | 35.56° C | 8% | 1028.8 hPa | - | - | - | - |
| 1777621756 | 34.44° C | 9% | 1028.9 hPa | - | - | - | - |
| 1777620556 | 38.89° C | 7% | 1028.8 hPa | - | - | - | - |
| 1777619356 | 41.11° C | 6% | 1028.7 hPa | - | - | - | - |
| 1777572490 | 12.78° C | 20% | 1026.8 hPa | - | - | - | - |
| 1777571290 | 13.33° C | 22% | 1026.8 hPa | - | - | - | - |
| 1777570090 | 13.89° C | 20% | 1026.6 hPa | - | - | - | - |
| 1777568890 | 13.89° C | 19% | 1026.6 hPa | - | - | - | - |
| 1777567690 | 14.44° C | 18% | 1026.5 hPa | - | - | - | - |
| 1777566490 | 14.44° C | 18% | 1026.4 hPa | - | - | - | - |
* Rain since midnight (hover to see other rain measurements)
** Current wind speed in m/s (hover to see current wind gust speed)